Time;durP1;ratioP1;P1;durP2;ratioP2;P2;SDS_P1;SDS_P2;PMS_P1;PMS_P2;Temp;Humidity;BMP_temperature;BMP_pressure;BME280_temperature;BME280_humidity;BME280_pressure;Samples;Min_cycle;Max_cycle;Signal;HPM_P1;HPM_P2
2023/01/05 00:02:20;;;;;;;15.75;3.25;;;;;;;8.78;100.00;100229.84;6152831;28;20058;-89
2023/01/05 00:05:25;;;;;;;11.52;3.53;;;;;;;8.78;100.00;100222.91;6170278;28;20107;-91
2023/01/05 00:08:27;;;;;;;13.43;3.20;;;;;;;8.81;100.00;100217.50;6169973;28;20061;-91
2023/01/05 00:25:21;;;;;;;10.15;1.88;;;;;;;8.95;100.00;100189.81;6184926;28;20062;-90
2023/01/05 00:28:24;;;;;;;10.52;2.78;;;;;;;8.97;100.00;100188.78;6186257;28;20046;-90
2023/01/05 00:31:25;;;;;;;13.20;2.47;;;;;;;8.99;100.00;100180.88;6131954;28;20765;-90
2023/01/05 00:34:28;;;;;;;12.88;3.22;;;;;;;9.10;100.00;100167.16;6180079;28;20042;-91
2023/01/05 00:37:32;;;;;;;13.18;3.05;;;;;;;9.19;100.00;100163.81;6183783;28;20050;-90
2023/01/05 00:40:35;;;;;;;8.00;2.22;;;;;;;9.18;100.00;100173.34;6165136;28;20050;-89
2023/01/05 00:43:36;;;;;;;9.27;2.30;;;;;;;9.21;100.00;100151.63;6167627;28;20428;-89
2023/01/05 00:46:38;;;;;;;10.95;2.78;;;;;;;9.17;100.00;100151.06;6167423;28;20031;-89
2023/01/05 00:49:40;;;;;;;13.55;2.65;;;;;;;9.21;100.00;100170.50;6168927;28;20046;-88
2023/01/05 00:52:43;;;;;;;11.38;2.53;;;;;;;9.22;100.00;100179.91;6170092;28;20073;-88
2023/01/05 00:55:54;;;;;;;11.48;2.65;;;;;;;9.12;100.00;100180.75;6179210;28;20404;-89
2023/01/05 00:58:56;;;;;;;13.02;2.90;;;;;;;9.07;100.00;100217.28;6164856;28;20089;-90
2023/01/05 01:01:58;;;;;;;10.75;2.80;;;;;;;9.06;100.00;100185.44;6175153;28;20042;-89
2023/01/05 01:05:00;;;;;;;12.13;3.22;;;;;;;9.08;100.00;100198.25;6186859;28;20058;-89
2023/01/05 01:08:04;;;;;;;8.13;2.45;;;;;;;9.09;100.00;100188.75;6182676;28;20049;-88
2023/01/05 01:11:07;;;;;;;14.43;3.10;;;;;;;9.12;100.00;100188.50;6179434;28;20045;-88
2023/01/05 01:14:10;;;;;;;9.55;2.30;;;;;;;9.01;100.00;100179.81;6167407;28;20046;-88
2023/01/05 01:17:12;;;;;;;14.85;2.60;;;;;;;9.08;100.00;100189.69;6187354;28;20231;-88
2023/01/05 01:20:14;;;;;;;14.73;2.80;;;;;;;9.11;100.00;100171.38;6185219;28;20050;-88
2023/01/05 01:23:16;;;;;;;13.57;2.60;;;;;;;9.06;100.00;100184.63;6185224;28;20085;-88
2023/01/05 01:26:19;;;;;;;15.57;2.60;;;;;;;9.17;100.00;100205.28;6168161;28;20054;-87
2023/01/05 01:29:22;;;;;;;10.55;2.95;;;;;;;9.24;100.00;100183.22;6169035;28;20057;-87
2023/01/05 01:32:24;;;;;;;7.57;2.63;;;;;;;9.30;100.00;100204.31;6166195;28;20046;-87
2023/01/05 01:35:26;;;;;;;9.15;2.45;;;;;;;9.24;100.00;100179.78;6167466;28;21136;-88
2023/01/05 01:38:28;;;;;;;13.35;3.70;;;;;;;9.33;100.00;100188.56;6185924;28;20042;-88
2023/01/05 01:41:29;;;;;;;11.23;2.42;;;;;;;9.31;100.00;100193.84;6169492;28;20622;-87
2023/01/05 01:45:04;;;;;;;11.10;2.38;;;;;;;9.39;100.00;100195.81;6160558;28;20122;-88
2023/01/05 01:48:13;;;;;;;13.48;2.63;;;;;;;9.32;100.00;100192.13;6171575;28;20067;-87
2023/01/05 01:51:36;;;;;;;9.32;2.97;;;;;;;9.26;100.00;100191.63;6180191;28;20039;-89
2023/01/05 01:54:38;;;;;;;12.73;2.95;;;;;;;9.24;100.00;100192.69;6174208;28;20054;-88
2023/01/05 01:57:42;;;;;;;14.65;2.70;;;;;;;9.20;100.00;100199.88;6168219;28;20048;-87
2023/01/05 02:00:45;;;;;;;10.20;2.83;;;;;;;9.17;100.00;100210.44;6159037;28;20515;-88
2023/01/05 02:03:47;;;;;;;7.70;2.40;;;;;;;9.15;100.00;100202.00;6184665;28;20097;-89
2023/01/05 02:06:51;;;;;;;10.57;2.28;;;;;;;9.05;100.00;100199.31;6180111;28;20038;-88
2023/01/05 02:09:53;;;;;;;11.65;2.50;;;;;;;9.13;100.00;100216.78;6185331;28;20044;-88
2023/01/05 02:13:24;;;;;;;10.15;2.42;;;;;;;9.13;100.00;100205.63;6164443;28;20034;-88
2023/01/05 02:17:10;;;;;;;10.13;2.55;;;;;;;9.23;100.00;100178.16;6161521;28;20045;-88
2023/01/05 02:20:27;;;;;;;7.53;2.33;;;;;;;9.22;100.00;100186.84;6182202;28;20046;-88
2023/01/05 02:24:02;;;;;;;13.10;2.63;;;;;;;9.35;100.00;100168.63;6158855;28;20061;-88
2023/01/05 02:27:03;;;;;;;11.68;2.08;;;;;;;9.37;100.00;100183.06;6155403;28;20054;-87
2023/01/05 02:30:42;;;;;;;9.32;1.83;;;;;;;9.41;100.00;100187.00;6172736;28;20430;-87
2023/01/05 02:34:01;;;;;;;12.05;2.92;;;;;;;9.34;100.00;100167.81;6174282;28;20043;-88
2023/01/05 02:37:21;;;;;;;9.85;2.25;;;;;;;9.16;100.00;100201.03;6158423;28;20053;-92
2023/01/05 02:40:35;;;;;;;12.50;2.42;;;;;;;8.95;100.00;100176.91;6176403;28;20058;-93
2023/01/05 02:43:38;;;;;;;10.35;2.47;;;;;;;8.93;100.00;100195.09;6163772;28;20046;-94
2023/01/05 02:46:40;;;;;;;8.38;2.17;;;;;;;8.91;100.00;100207.28;6166437;28;20409;-93
2023/01/05 02:49:42;;;;;;;11.90;2.50;;;;;;;8.94;100.00;100199.31;6167088;28;20112;-92
2023/01/05 02:53:13;;;;;;;12.75;2.30;;;;;;;8.94;100.00;100201.88;6171901;28;20043;-92
2023/01/05 02:56:18;;;;;;;;;;;;;;;8.84;100.00;100217.28;6156168;28;20078;-89
2023/01/05 02:59:38;;;;;;;11.50;2.08;;;;;;;8.81;100.00;100207.19;6190119;28;19936;-88
2023/01/05 03:02:43;;;;;;;11.50;2.17;;;;;;;8.87;100.00;100213.66;6178145;28;20042;-90
2023/01/05 03:06:00;;;;;;;12.18;3.05;;;;;;;8.82;100.00;100220.94;6180665;28;20069;-91
2023/01/05 03:09:03;;;;;;;11.60;2.15;;;;;;;8.84;100.00;100217.28;6187543;28;20050;-92
2023/01/05 03:15:49;;;;;;;7.13;2.13;;;;;;;8.78;100.00;100222.09;6183871;28;20448;-92
2023/01/05 03:35:57;;;;;;;9.77;2.55;;;;;;;8.81;100.00;100256.22;6183754;28;20381;-91
2023/01/05 03:39:03;;;;;;;12.70;2.30;;;;;;;8.76;100.00;100252.34;6175030;28;20038;-90
2023/01/05 03:42:09;;;;;;;9.73;2.50;;;;;;;8.70;100.00;100251.06;6154713;28;20580;-91
2023/01/05 03:45:14;;;;;;;12.82;3.22;;;;;;;8.74;100.00;100265.34;6171977;28;20050;-90
2023/01/05 03:48:17;;;;;;;13.20;2.55;;;;;;;8.80;100.00;100271.84;6163847;28;20057;-90
2023/01/05 03:51:19;;;;;;;8.40;2.25;;;;;;;8.83;100.00;100250.94;6188797;28;20035;-90
2023/01/05 03:54:21;;;;;;;13.07;2.80;;;;;;;8.78;100.00;100261.63;6172681;28;20046;-89
2023/01/05 03:57:23;;;;;;;9.45;2.60;;;;;;;8.81;100.00;100261.38;6172353;28;20108;-89
2023/01/05 04:00:25;;;;;;;13.55;2.90;;;;;;;8.84;100.00;100252.56;6173338;28;20089;-89
2023/01/05 04:03:35;;;;;;;13.85;2.60;;;;;;;8.80;100.00;100272.66;6171303;28;20056;-90
2023/01/05 04:06:40;;;;;;;11.90;2.78;;;;;;;8.80;100.00;100272.66;6172681;28;20052;-89
2023/01/05 04:09:43;;;;;;;12.13;2.00;;;;;;;8.81;100.00;100279.44;6164507;28;20043;-89
2023/01/05 04:12:48;;;;;;;9.98;1.92;;;;;;;8.84;100.00;100258.59;6185425;28;20038;-89
2023/01/05 04:15:51;;;;;;;10.88;2.78;;;;;;;8.94;100.00;100255.28;6147535;28;20058;-89
2023/01/05 04:18:53;;;;;;;10.55;2.47;;;;;;;8.90;100.00;100248.72;6173241;28;20575;-89
2023/01/05 04:21:56;;;;;;;10.88;2.95;;;;;;;8.86;100.00;100271.34;6170952;28;20042;-88
2023/01/05 04:24:59;;;;;;;15.90;2.90;;;;;;;8.90;100.00;100259.06;6173662;28;20133;-88
2023/01/05 04:28:03;;;;;;;11.65;2.88;;;;;;;8.84;100.00;100276.66;6150592;28;20378;-89
2023/01/05 04:31:07;;;;;;;10.77;2.20;;;;;;;8.87;100.00;100264.44;6172225;28;20540;-90
2023/01/05 04:34:09;;;;;;;15.32;2.97;;;;;;;8.87;100.00;100267.84;6170009;28;20514;-89
2023/01/05 04:37:12;;;;;;;11.65;3.00;;;;;;;8.82;100.00;100290.63;6171344;28;20145;-89
2023/01/05 04:40:14;;;;;;;13.93;2.80;;;;;;;8.73;100.00;100311.94;6188016;28;20073;-88
2023/01/05 04:43:22;;;;;;;9.60;2.40;;;;;;;8.74;100.00;100286.00;6172197;28;20125;-88
2023/01/05 04:46:24;;;;;;;5.68;2.00;;;;;;;8.77;100.00;100315.91;6156229;28;20153;-88
2023/01/05 04:49:29;;;;;;;10.65;3.00;;;;;;;8.71;100.00;100293.16;6171669;28;20069;-89
2023/01/05 04:52:31;;;;;;;12.15;2.63;;;;;;;8.69;100.00;100321.66;6171218;28;20085;-90
2023/01/05 04:55:32;;;;;;;13.65;2.53;;;;;;;8.66;100.00;100313.31;6190225;28;20042;-88
2023/01/05 04:58:36;;;;;;;7.93;2.30;;;;;;;8.58;100.00;100342.28;6171343;28;20552;-88
2023/01/05 05:01:38;;;;;;;12.55;2.78;;;;;;;8.47;100.00;100342.22;6166575;28;20046;-87
2023/01/05 05:04:44;;;;;;;10.55;2.45;;;;;;;8.44;100.00;100370.84;6171181;28;20054;-88
2023/01/05 05:07:47;;;;;;;11.50;3.03;;;;;;;8.41;100.00;100383.00;6170178;28;20584;-89
2023/01/05 05:10:49;;;;;;;15.65;3.20;;;;;;;8.38;100.00;100372.06;6188293;28;20038;-88
2023/01/05 05:13:52;;;;;;;13.93;2.80;;;;;;;8.38;100.00;100411.56;6170679;28;20389;-88
2023/01/05 05:16:54;;;;;;;12.20;2.97;;;;;;;8.39;100.00;100408.09;6190118;28;20047;-89
2023/01/05 05:19:56;;;;;;;12.10;3.38;;;;;;;8.41;100.00;100395.09;6170342;28;20035;-91
2023/01/05 05:22:59;;;;;;;10.50;2.90;;;;;;;8.37;100.00;100399.63;6169671;28;20056;-91
2023/01/05 05:26:04;;;;;;;9.00;3.03;;;;;;;8.36;100.00;100387.66;6181500;28;20054;-92
2023/01/05 05:29:07;;;;;;;11.48;3.10;;;;;;;8.31;100.00;100382.00;6161862;28;20061;-92
2023/01/05 05:32:09;;;;;;;14.65;3.35;;;;;;;8.25;100.00;100386.75;6188830;28;20057;-91
2023/01/05 05:35:11;;;;;;;15.43;2.95;;;;;;;8.24;100.00;100383.38;6190258;28;20069;-92
2023/01/05 05:38:13;;;;;;;10.63;2.90;;;;;;;8.25;100.00;100385.03;6171648;28;20797;-92
2023/01/05 05:41:15;;;;;;;10.57;2.92;;;;;;;8.33;100.00;100372.41;6188815;28;20540;-92
2023/01/05 05:44:17;;;;;;;13.35;2.78;;;;;;;8.35;100.00;100382.63;6148582;28;20047;-92
2023/01/05 05:47:19;;;;;;;12.60;2.67;;;;;;;8.33;100.00;100380.13;6180040;28;20065;-93
2023/01/05 05:50:21;;;;;;;12.80;2.95;;;;;;;8.39;100.00;100387.44;6184852;28;20045;-88
2023/01/05 05:53:22;;;;;;;8.05;3.00;;;;;;;8.30;100.00;100384.72;6176466;28;20466;-89
2023/01/05 05:56:26;;;;;;;12.50;2.85;;;;;;;8.24;100.00;100404.00;6183757;28;20042;-89
2023/01/05 05:59:28;;;;;;;12.65;3.30;;;;;;;8.29;100.00;100401.09;6173555;28;20089;-89
2023/01/05 06:02:30;;;;;;;12.60;2.80;;;;;;;8.28;100.00;100414.94;6153058;28;20042;-90
2023/01/05 06:05:32;;;;;;;11.82;2.83;;;;;;;8.32;100.00;100419.78;6167637;28;20527;-89
2023/01/05 06:08:34;;;;;;;15.10;3.15;;;;;;;8.28;100.00;100425.25;6170627;28;20044;-88
2023/01/05 06:11:36;;;;;;;13.93;2.30;;;;;;;8.22;100.00;100441.13;6169843;28;20050;-89
2023/01/05 06:14:37;;;;;;;11.55;2.75;;;;;;;8.18;100.00;100446.50;6174788;28;20134;-91
2023/01/05 06:17:39;;;;;;;6.90;2.10;;;;;;;8.22;100.00;100430.81;6183377;28;20539;-92
2023/01/05 06:20:42;;;;;;;7.20;1.95;;;;;;;8.26;100.00;100442.56;6180889;28;20049;-93
2023/01/05 06:23:44;;;;;;;13.90;2.80;;;;;;;8.26;100.00;100442.56;6170176;28;20054;-93
2023/01/05 06:26:46;;;;;;;10.52;3.38;;;;;;;8.28;100.00;100441.53;6187129;28;20049;-92
2023/01/05 06:29:48;;;;;;;9.70;2.53;;;;;;;8.31;100.00;100451.63;6167873;28;20042;-90
2023/01/05 06:32:49;;;;;;;11.75;2.63;;;;;;;8.27;100.00;100450.19;6182929;28;20053;-90
2023/01/05 06:35:51;;;;;;;12.02;3.08;;;;;;;8.34;100.00;100466.88;6197211;28;20048;-91
2023/01/05 06:38:53;;;;;;;10.13;2.35;;;;;;;8.33;100.00;100470.41;6170686;28;20034;-90
2023/01/05 06:41:55;;;;;;;7.68;2.22;;;;;;;8.32;100.00;100458.44;6167591;28;20034;-89
2023/01/05 06:44:57;;;;;;;8.43;2.55;;;;;;;8.37;100.00;100450.38;6167150;28;20490;-90
2023/01/05 06:47:59;;;;;;;8.35;2.28;;;;;;;8.36;100.00;100441.81;6185502;28;20772;-89
2023/01/05 06:51:01;;;;;;;12.20;3.13;;;;;;;8.31;100.00;100461.13;6169026;28;20408;-89
2023/01/05 06:54:03;;;;;;;12.77;2.75;;;;;;;8.38;100.00;100480.41;6187317;28;20046;-89
2023/01/05 06:57:05;;;;;;;14.77;2.60;;;;;;;8.37;100.00;100471.84;6170139;28;20177;-89
2023/01/05 07:00:10;;;;;;;9.55;2.63;;;;;;;8.35;100.00;100496.91;6185992;28;20039;-88
2023/01/05 07:03:13;;;;;;;11.45;3.00;;;;;;;8.38;100.00;100498.44;6169277;28;20066;-89
2023/01/05 07:06:15;;;;;;;13.43;3.67;;;;;;;8.37;100.00;100505.38;6185577;28;20086;-90
2023/01/05 07:09:16;;;;;;;13.75;2.40;;;;;;;8.46;100.00;100505.69;6169793;28;20059;-89
2023/01/05 07:12:18;;;;;;;9.90;2.50;;;;;;;8.47;100.00;100504.75;6187028;28;20046;-90
2023/01/05 07:15:20;;;;;;;8.25;2.45;;;;;;;8.43;100.00;100495.59;6183834;28;20047;-88
2023/01/05 07:18:22;;;;;;;8.88;2.20;;;;;;;8.38;100.00;100512.16;6167328;28;20519;-88
2023/01/05 07:21:24;;;;;;;12.10;2.70;;;;;;;8.46;100.00;100498.75;6182227;28;20077;-90
2023/01/05 07:24:26;;;;;;;11.50;2.55;;;;;;;8.43;100.00;100509.31;6168643;28;20046;-88
2023/01/05 07:27:28;;;;;;;15.50;2.63;;;;;;;8.42;100.00;100515.38;6170517;28;20133;-88
2023/01/05 07:30:32;;;;;;;10.98;3.05;;;;;;;8.48;100.00;100499.47;6187915;28;20109;-88
2023/01/05 07:33:35;;;;;;;11.10;2.65;;;;;;;8.51;100.00;100521.66;6183485;28;20060;-87
2023/01/05 07:36:40;;;;;;;10.57;2.70;;;;;;;8.57;100.00;100511.75;6169676;28;20042;-88
2023/01/05 07:39:43;;;;;;;8.95;2.65;;;;;;;8.56;100.00;100501.50;6172940;28;20173;-88
2023/01/05 07:42:50;;;;;;;7.15;2.60;;;;;;;8.52;100.00;100516.41;6156738;28;20046;-87
2023/01/05 07:45:56;;;;;;;11.80;2.53;;;;;;;8.56;100.00;100512.66;6190474;28;20061;-87
2023/01/05 07:49:00;;;;;;;8.63;2.30;;;;;;;8.60;100.00;100518.44;6169133;28;20560;-88
2023/01/05 07:52:02;;;;;;;11.63;2.65;;;;;;;8.63;100.00;100528.53;6176028;28;20035;-88
2023/01/05 07:55:05;;;;;;;14.20;2.67;;;;;;;8.73;100.00;100529.53;6180831;28;20049;-87
2023/01/05 07:58:07;;;;;;;11.25;2.53;;;;;;;8.72;100.00;100506.41;6190906;28;20044;-87
2023/01/05 08:01:12;;;;;;;10.20;2.40;;;;;;;8.68;100.00;100523.06;6190638;28;20092;-88
2023/01/05 08:04:14;;;;;;;8.27;2.05;;;;;;;8.68;100.00;100531.59;6174004;28;20510;-87
2023/01/05 08:07:15;;;;;;;13.85;2.88;;;;;;;8.65;100.00;100537.00;6190668;28;20555;-87
2023/01/05 08:10:30;;;;;;;15.57;3.08;;;;;;;8.65;100.00;100539.56;6171828;28;20642;-87
2023/01/05 08:16:55;;;;;;;17.85;3.33;;;;;;;8.58;100.00;100554.66;6185160;28;20399;-87
2023/01/05 08:19:57;;;;;;;13.57;2.97;;;;;;;8.56;100.00;100553.94;6188207;28;20515;-86
2023/01/05 08:22:59;;;;;;;12.80;2.72;;;;;;;8.65;100.00;100560.22;6173161;28;20050;-87
2023/01/05 08:26:06;;;;;;;11.43;2.60;;;;;;;8.72;100.00;100548.53;6177283;28;20133;-87
2023/01/05 08:29:08;;;;;;;6.43;2.38;;;;;;;8.74;100.00;100553.56;6188057;28;20045;-87
2023/01/05 08:32:10;;;;;;;8.98;2.90;;;;;;;8.68;100.00;100567.75;6187740;28;20688;-87
2023/01/05 08:35:11;;;;;;;12.95;3.30;;;;;;;8.55;100.00;100590.19;6188972;28;20045;-87
2023/01/05 08:38:13;;;;;;;10.65;2.83;;;;;;;8.48;100.00;100596.69;6189993;28;20053;-88
2023/01/05 08:41:29;;;;;;;11.93;3.08;;;;;;;8.48;100.00;100604.44;6189612;28;20489;-87
2023/01/05 08:44:31;;;;;;;10.25;2.53;;;;;;;8.46;100.00;100604.53;6169339;28;20129;-89
2023/01/05 08:47:35;;;;;;;15.48;2.90;;;;;;;8.56;100.00;100618.44;6183861;28;20039;-89
2023/01/05 08:50:37;;;;;;;15.23;3.85;;;;;;;8.64;100.00;100607.56;6186140;28;20153;-89
2023/01/05 08:53:39;;;;;;;12.65;2.75;;;;;;;8.74;100.00;100597.44;6188558;28;20402;-88
2023/01/05 08:56:42;;;;;;;9.70;2.60;;;;;;;8.82;100.00;100605.50;6187314;28;20049;-89
2023/01/05 08:59:44;;;;;;;8.27;2.60;;;;;;;8.81;100.00;100620.13;6182858;28;20158;-88
2023/01/05 09:02:47;;;;;;;9.82;2.63;;;;;;;8.84;100.00;100612.19;6161714;28;20034;-89
2023/01/05 09:05:52;;;;;;;13.52;3.08;;;;;;;8.87;100.00;100597.41;6177238;28;20046;-88
2023/01/05 09:08:54;;;;;;;10.38;2.92;;;;;;;8.91;100.00;100616.91;6171276;28;20047;-89
2023/01/05 09:11:56;;;;;;;12.50;2.85;;;;;;;9.05;100.00;100619.34;6169176;28;20050;-88
2023/01/05 09:14:58;;;;;;;11.27;2.30;;;;;;;9.22;100.00;100616.38;6172522;28;20128;-88
2023/01/05 09:18:00;;;;;;;12.55;2.70;;;;;;;9.22;100.00;100618.97;6172527;28;20043;-89
2023/01/05 09:21:03;;;;;;;8.70;2.95;;;;;;;9.24;100.00;100596.44;6175698;28;20062;-88
2023/01/05 09:24:06;;;;;;;8.60;2.10;;;;;;;9.24;100.00;100609.34;6169548;28;20053;-88
2023/01/05 09:27:08;;;;;;;7.63;2.20;;;;;;;9.19;100.00;100608.88;6171445;28;20049;-86
2023/01/05 09:30:11;;;;;;;6.78;1.92;;;;;;;9.11;100.00;100634.38;6169276;28;20035;-87
2023/01/05 09:33:12;;;;;;;6.57;2.05;;;;;;;9.15;100.00;100646.16;6172228;28;20867;-87
2023/01/05 09:36:16;;;;;;;6.53;1.90;;;;;;;9.12;100.00;100669.63;6172968;28;20046;-87
2023/01/05 09:39:18;;;;;;;9.45;2.05;;;;;;;9.07;100.00;100671.72;6167005;28;20460;-87
2023/01/05 09:42:25;;;;;;;9.48;2.63;;;;;;;9.00;100.00;100670.50;6171558;28;20039;-87
2023/01/05 09:45:27;;;;;;;9.45;2.42;;;;;;;9.01;100.00;100692.78;6172266;28;20049;-86
2023/01/05 09:48:38;;;;;;;20.27;3.75;;;;;;;8.97;100.00;100699.94;6175253;28;20461;-87
2023/01/05 09:51:41;;;;;;;8.55;2.80;;;;;;;9.01;100.00;100696.19;6175228;28;20043;-87
2023/01/05 09:54:43;;;;;;;7.85;1.80;;;;;;;9.05;100.00;100702.78;6172890;28;20555;-87
2023/01/05 09:57:58;;;;;;;7.25;2.05;;;;;;;8.86;100.00;100697.25;6180350;28;20065;-87
2023/01/05 10:01:09;;;;;;;6.35;2.03;;;;;;;8.89;100.00;100724.59;6172876;28;20053;-88
2023/01/05 10:04:16;;;;;;;8.77;2.75;;;;;;;8.81;100.00;100713.03;6166899;28;20042;-86
2023/01/05 10:07:46;;;;;;;8.07;2.05;;;;;;;8.87;100.00;100717.00;6171782;28;20043;-86
2023/01/05 10:14:35;;;;;;;6.82;1.80;;;;;;;9.11;100.00;100723.94;6175407;28;20054;-85
2023/01/05 10:17:38;;;;;;;7.82;1.92;;;;;;;9.24;100.00;100722.16;6165404;28;20047;-86
2023/01/05 10:21:10;;;;;;;5.20;1.70;;;;;;;9.25;100.00;100722.06;6183258;28;20049;-86
2023/01/05 10:24:49;;;;;;;4.32;1.48;;;;;;;9.36;100.00;100734.22;6187119;28;20505;-86
2023/01/05 10:28:25;;;;;;;7.13;1.77;;;;;;;9.31;100.00;100725.97;6179277;28;20042;-86
2023/01/05 10:31:54;;;;;;;5.95;1.35;;;;;;;9.26;100.00;100740.97;6186755;28;20053;-86
2023/01/05 10:34:59;;;;;;;3.28;1.30;;;;;;;9.38;100.00;100744.44;6180960;28;20552;-85
2023/01/05 10:38:04;;;;;;;5.13;1.55;;;;;;;9.39;100.00;100734.00;6174427;28;20046;-86
2023/01/05 10:41:58;;;;;;;4.85;1.27;;;;;;;9.35;100.00;100737.72;6157015;28;20058;-86
2023/01/05 10:45:08;;;;;;;9.93;1.73;;;;;;;9.37;100.00;100746.22;6108210;29;20510;-85
2023/01/05 10:48:22;;;;;;;10.88;2.22;;;;;;;9.35;100.00;100745.50;6090899;29;20055;-86
2023/01/05 10:51:24;;;;;;;7.43;1.95;;;;;;;9.33;100.00;100749.13;6106430;29;20044;-85
2023/01/05 10:54:38;;;;;;;6.47;2.03;;;;;;;9.39;100.00;100748.66;6109922;29;20063;-86
2023/01/05 10:57:40;;;;;;;11.40;2.40;;;;;;;9.39;100.00;100736.59;6108099;29;20056;-86
2023/01/05 11:00:42;;;;;;;7.80;2.45;;;;;;;9.37;100.00;100742.81;6109969;29;20047;-85
2023/01/05 11:03:47;;;;;;;8.30;1.70;;;;;;;9.34;100.00;100745.59;6088027;29;20390;-86
2023/01/05 11:07:09;;;;;;;4.95;1.48;;;;;;;9.46;100.00;100740.38;6109555;29;20103;-85
2023/01/05 11:10:28;;;;;;;7.68;1.85;;;;;;;9.43;100.00;100761.25;6108163;29;20064;-85
2023/01/05 11:13:36;;;;;;;4.45;1.52;;;;;;;9.49;100.00;100775.53;6112228;29;20139;-85
2023/01/05 11:16:45;;;;;;;7.63;1.50;;;;;;;9.50;100.00;100759.09;6115309;29;20083;-85
2023/01/05 11:19:50;;;;;;;5.38;1.45;;;;;;;9.50;100.00;100756.50;6122617;28;20046;-86
2023/01/05 11:22:52;;;;;;;2.70;1.40;;;;;;;9.59;100.00;100771.38;6157520;28;20039;-86
2023/01/05 11:26:14;;;;;;;7.80;1.88;;;;;;;9.69;100.00;100769.78;6177587;28;20432;-86
2023/01/05 11:29:17;;;;;;;5.90;1.98;;;;;;;9.68;100.00;100769.88;6174112;28;20042;-86
2023/01/05 11:32:19;;;;;;;6.88;1.60;;;;;;;9.76;100.00;100764.16;6181240;28;20145;-85
2023/01/05 11:35:30;;;;;;;7.28;1.70;;;;;;;9.97;100.00;100770.38;6188526;28;20216;-86
2023/01/05 11:38:33;;;;;;;4.20;1.80;;;;;;;10.09;100.00;100759.13;6173006;28;20054;-85
2023/01/05 11:41:36;;;;;;;6.88;2.00;;;;;;;10.14;100.00;100758.81;6173442;28;20513;-85
2023/01/05 11:44:59;;;;;;;5.60;1.63;;;;;;;10.11;100.00;100761.59;6164770;28;20163;-85
2023/01/05 11:48:05;;;;;;;6.63;1.95;;;;;;;10.19;100.00;100764.47;6165489;28;20051;-85
2023/01/05 11:51:08;;;;;;;8.63;2.47;;;;;;;10.30;100.00;100763.69;6173508;28;20121;-85
2023/01/05 11:54:35;;;;;;;6.00;2.33;;;;;;;10.13;100.00;100775.25;6179144;28;20042;-85
2023/01/05 11:57:38;;;;;;;7.80;1.70;;;;;;;10.25;100.00;100784.69;6160778;28;20484;-86
2023/01/05 12:01:06;;;;;;;4.88;1.65;;;;;;;10.28;100.00;100778.50;6172844;28;20444;-86
2023/01/05 12:04:38;;;;;;;7.30;1.95;;;;;;;10.10;100.00;100765.94;6180794;28;20121;-86
2023/01/05 12:08:00;;;;;;;8.18;2.10;;;;;;;9.99;100.00;100784.00;6179073;28;20397;-85
2023/01/05 12:11:25;;;;;;;6.30;1.75;;;;;;;9.80;100.00;100779.34;6163405;28;20038;-85
2023/01/05 12:14:45;;;;;;;7.80;2.65;;;;;;;9.70;100.00;100792.09;6173032;28;20047;-85
2023/01/05 12:17:51;;;;;;;6.18;1.70;;;;;;;9.56;100.00;100794.00;6176494;28;20516;-85
2023/01/05 12:21:23;;;;;;;4.15;1.52;;;;;;;9.56;100.00;100809.50;6182230;28;20180;-85
2023/01/05 12:24:43;;;;;;;6.88;2.10;;;;;;;9.47;100.00;100816.97;6180288;28;20168;-85
2023/01/05 12:28:06;;;;;;;7.55;2.28;;;;;;;9.28;100.00;100809.66;6179102;28;20047;-85
2023/01/05 12:31:50;;;;;;;5.55;1.70;;;;;;;9.09;100.00;100827.34;6186767;28;20143;-85
2023/01/05 12:35:18;;;;;;;5.70;1.55;;;;;;;8.92;100.00;100835.41;6171484;28;20100;-88
2023/01/05 12:38:54;;;;;;;12.35;2.00;;;;;;;8.88;100.00;100836.56;6171693;28;20050;-89
2023/01/05 12:42:27;;;;;;;5.28;1.65;;;;;;;8.93;100.00;100847.41;6184886;28;20042;-89
2023/01/05 12:46:06;;;;;;;3.90;1.70;;;;;;;8.96;100.00;100858.34;6181045;28;20039;-89
2023/01/05 12:49:20;;;;;;;4.88;2.20;;;;;;;9.06;100.00;100867.09;6168681;28;20050;-89
2023/01/05 12:52:32;;;;;;;4.25;2.22;;;;;;;9.17;100.00;100884.50;6186984;28;20149;-89
2023/01/05 12:55:51;;;;;;;8.65;2.15;;;;;;;9.17;100.00;100873.34;6171698;28;20051;-90
2023/01/05 12:59:19;;;;;;;6.20;2.45;;;;;;;9.22;100.00;100864.34;6186515;28;20500;-89
2023/01/05 13:02:34;;;;;;;5.85;2.38;;;;;;;9.14;100.00;100863.19;6177004;28;20051;-89
2023/01/05 13:06:04;;;;;;;8.77;2.25;;;;;;;9.11;100.00;100858.25;6188187;28;20109;-89
2023/01/05 13:09:17;;;;;;;8.18;2.33;;;;;;;9.14;100.00;100873.50;6175584;28;20445;-89
2023/01/05 13:12:19;;;;;;;5.82;1.85;;;;;;;9.21;100.00;100854.09;6167669;28;20034;-88
2023/01/05 13:16:02;;;;;;;9.73;1.98;;;;;;;9.26;100.00;100855.44;6162177;28;20268;-89
2023/01/05 13:19:47;;;;;;;5.20;1.63;;;;;;;9.35;100.00;100845.41;6175623;28;20508;-88
2023/01/05 13:22:55;;;;;;;7.70;1.45;;;;;;;9.38;100.00;100845.19;6058579;29;20067;-88
2023/01/05 13:26:17;;;;;;;6.70;1.73;;;;;;;9.54;100.00;100850.97;6057164;29;20067;-87
2023/01/05 13:29:29;;;;;;;4.15;1.67;;;;;;;9.55;100.00;100839.69;6065164;29;20074;-87
2023/01/05 13:32:43;;;;;;;6.05;2.17;;;;;;;9.59;100.00;100841.13;6054146;29;20072;-87
2023/01/05 13:36:22;;;;;;;6.03;1.40;;;;;;;9.64;100.00;100844.22;6065453;29;20055;-87
2023/01/05 13:39:43;;;;;;;3.80;1.25;;;;;;;9.65;100.00;100865.72;6052994;29;20056;-87
2023/01/05 13:43:10;;;;;;;4.22;1.30;;;;;;;9.61;100.00;100862.50;6070855;29;20196;-87
2023/01/05 13:46:31;;;;;;;9.38;2.15;;;;;;;9.61;100.00;100872.84;6062066;29;20064;-87
2023/01/05 13:49:42;;;;;;;5.00;2.03;;;;;;;9.63;100.00;100870.16;6068964;29;20048;-87
2023/01/05 13:53:05;;;;;;;8.82;2.63;;;;;;;9.53;100.00;100875.16;6063601;29;20100;-87
2023/01/05 13:56:18;;;;;;;7.18;2.05;;;;;;;9.55;100.00;100885.38;6057138;29;20355;-86
2023/01/05 13:59:31;;;;;;;8.05;2.10;;;;;;;9.45;100.00;100882.59;6148689;28;20062;-86
2023/01/05 14:02:55;;;;;;;3.92;1.70;;;;;;;9.32;100.00;100886.97;6166088;28;20034;-87
2023/01/05 14:05:59;;;;;;;9.52;2.60;;;;;;;9.24;100.00;100901.22;6174014;28;20042;-87
2023/01/05 14:09:05;;;;;;;3.88;2.00;;;;;;;9.19;100.00;100908.47;6171049;28;20098;-87
2023/01/05 14:12:07;;;;;;;3.83;1.20;;;;;;;9.20;100.00;100909.28;6170506;28;20046;-87
2023/01/05 14:15:11;;;;;;;3.28;1.35;;;;;;;8.98;100.00;100910.69;6171465;28;20484;-87
2023/01/05 14:18:49;;;;;;;1.48;0.93;;;;;;;8.77;100.00;100918.09;6169179;28;20050;-86
2023/01/05 14:22:00;;;;;;;2.78;1.20;;;;;;;8.63;100.00;100937.06;6178908;28;20343;-86
2023/01/05 14:25:42;;;;;;;2.15;0.80;;;;;;;8.63;100.00;100946.56;6166735;28;20049;-86
2023/01/05 14:28:45;;;;;;;2.72;1.20;;;;;;;8.47;100.00;100961.34;6182471;28;20186;-86
2023/01/05 14:31:48;;;;;;;4.28;1.35;;;;;;;8.40;100.00;100964.31;6170117;28;20115;-86
2023/01/05 14:34:53;;;;;;;2.50;1.20;;;;;;;8.34;100.00;100977.56;6171794;28;20049;-86
2023/01/05 14:37:58;;;;;;;2.53;0.95;;;;;;;8.28;100.00;100985.69;6170585;28;20111;-86
2023/01/05 14:41:00;;;;;;;3.55;1.27;;;;;;;8.19;100.00;100994.81;6157787;28;20084;-86
2023/01/05 14:44:20;;;;;;;2.38;1.33;;;;;;;8.07;100.00;101000.72;6169343;28;20193;-89
2023/01/05 14:47:51;;;;;;;2.85;1.60;;;;;;;7.95;100.00;101022.09;6175377;28;20720;-88
2023/01/05 14:51:28;;;;;;;0.63;0.60;;;;;;;7.88;100.00;101031.94;6162212;28;20209;-93
2023/01/05 14:55:02;;;;;;;2.65;0.88;;;;;;;7.77;100.00;101039.47;6185052;28;20474;-88
2023/01/05 14:58:35;;;;;;;2.17;0.82;;;;;;;7.76;100.00;101043.78;6123516;29;20137;-89
2023/01/05 15:02:16;;;;;;;2.55;0.88;;;;;;;7.66;100.00;101036.72;6096594;29;20207;-87
2023/01/05 15:05:19;;;;;;;2.25;1.00;;;;;;;7.63;100.00;101045.44;6112600;29;20052;-85
2023/01/05 15:08:56;;;;;;;4.90;1.10;;;;;;;7.61;100.00;101065.31;6116423;29;20052;-88
2023/01/05 15:12:31;;;;;;;2.95;1.10;;;;;;;7.63;100.00;101078.94;6114523;29;20046;-88
2023/01/05 15:15:52;;;;;;;1.45;0.77;;;;;;;7.54;100.00;101077.72;6113558;29;20052;-87
2023/01/05 15:19:13;;;;;;;1.98;1.02;;;;;;;7.60;100.00;101080.84;6112969;29;20556;-88